Time;durP1;ratioP1;P1;durP2;ratioP2;P2;SDS_P1;SDS_P2;PMS_P1;PMS_P2;Temp;Humidity;BMP_temperature;BMP_pressure;BME280_temperature;BME280_humidity;BME280_pressure;Samples;Min_cycle;Max_cycle;Signal;HPM_P1;HPM_P2
2022/11/29 00:00:57;;;;;;;49.42;26.35;;;;;;;2.05;100.00;92330.34;5086716;28;20072;-74
2022/11/29 00:03:23;;;;;;;52.17;27.10;;;;;;;2.03;100.00;92332.38;5090469;28;20089;-74
2022/11/29 00:05:50;;;;;;;54.53;27.55;;;;;;;2.06;100.00;92326.75;5082217;28;20047;-74
2022/11/29 00:08:17;;;;;;;47.78;26.83;;;;;;;2.06;100.00;92326.75;5085825;28;20032;-75
2022/11/29 00:10:42;;;;;;;49.50;28.33;;;;;;;2.05;100.00;92331.13;5091926;28;20116;-75
2022/11/29 00:13:08;;;;;;;49.40;27.98;;;;;;;2.06;100.00;92331.91;5091916;28;20117;-75
2022/11/29 00:15:39;;;;;;;51.50;27.85;;;;;;;2.02;100.00;92323.06;5068532;28;20041;-75
2022/11/29 00:18:06;;;;;;;47.63;27.10;;;;;;;2.02;100.00;92321.25;5069804;28;20032;-75
2022/11/29 00:20:33;;;;;;;52.10;28.15;;;;;;;2.05;100.00;92320.81;5071509;28;20478;-75
2022/11/29 00:22:59;;;;;;;46.53;26.48;;;;;;;2.07;100.00;92323.13;5071251;28;20025;-75
2022/11/29 00:25:25;;;;;;;49.78;26.70;;;;;;;2.10;100.00;92327.84;5071116;28;20478;-74
2022/11/29 00:27:51;;;;;;;51.78;28.10;;;;;;;2.12;100.00;92319.84;5084357;28;20032;-74
2022/11/29 00:30:18;;;;;;;46.17;25.80;;;;;;;2.15;100.00;92314.97;5106943;28;20039;-74
2022/11/29 00:32:43;;;;;;;46.08;26.45;;;;;;;2.15;100.00;92314.97;5091255;28;20035;-75
2022/11/29 00:35:09;;;;;;;49.42;27.83;;;;;;;2.13;100.00;92317.03;5085436;28;20035;-75
2022/11/29 00:37:35;;;;;;;45.00;27.33;;;;;;;2.15;100.00;92319.38;5092451;28;20115;-74
2022/11/29 00:40:01;;;;;;;54.75;28.10;;;;;;;2.17;100.00;92315.53;5086581;28;20032;-74
2022/11/29 00:42:26;;;;;;;54.60;29.10;;;;;;;2.13;100.00;92317.03;5070835;28;20504;-74
2022/11/29 00:44:52;;;;;;;53.15;28.38;;;;;;;2.14;100.00;92317.78;5069614;28;20041;-74
2022/11/29 00:47:17;;;;;;;50.30;27.50;;;;;;;2.16;100.00;92313.19;5082223;28;20044;-74
2022/11/29 00:49:43;;;;;;;54.08;29.08;;;;;;;2.16;100.00;92319.16;5072708;28;20052;-75
2022/11/29 00:52:08;;;;;;;54.88;29.95;;;;;;;2.16;100.00;92315.75;5089588;28;20040;-74
2022/11/29 00:54:34;;;;;;;51.10;28.95;;;;;;;2.17;100.00;92307.78;5077993;28;20062;-74
2022/11/29 00:56:59;;;;;;;49.00;28.08;;;;;;;2.20;100.00;92309.09;5069423;28;20039;-74
2022/11/29 00:59:25;;;;;;;54.05;28.08;;;;;;;2.22;100.00;92310.41;5100828;28;20033;-74
2022/11/29 01:01:50;;;;;;;46.35;28.60;;;;;;;2.25;100.00;92309.16;5070802;28;20048;-74
2022/11/29 01:04:16;;;;;;;56.25;28.40;;;;;;;2.27;100.00;92313.09;5069440;28;20036;-74
2022/11/29 01:06:42;;;;;;;55.38;28.08;;;;;;;2.32;100.00;92309.78;5069398;28;20429;-74
2022/11/29 01:09:08;;;;;;;53.50;27.63;;;;;;;2.33;100.00;92300.22;5073236;28;20460;-74
2022/11/29 01:11:34;;;;;;;50.95;28.25;;;;;;;2.34;100.00;92302.56;5081988;28;20489;-75
2022/11/29 01:14:01;;;;;;;53.00;28.83;;;;;;;2.34;100.00;92302.56;5089650;28;20032;-74
2022/11/29 01:16:29;;;;;;;49.25;26.33;;;;;;;2.35;100.00;92303.34;5089546;28;20043;-74
2022/11/29 01:18:55;;;;;;;51.58;27.73;;;;;;;2.34;100.00;92306.94;5085566;28;20064;-74
2022/11/29 01:21:23;;;;;;;49.67;27.23;;;;;;;2.35;100.00;92305.94;5072914;28;20029;-74
2022/11/29 01:23:50;;;;;;;50.53;27.45;;;;;;;2.36;100.00;92304.91;5069237;28;20043;-74
2022/11/29 01:26:22;;;;;;;52.13;27.70;;;;;;;2.38;100.00;92308.03;5069307;28;20068;-73
2022/11/29 01:28:49;;;;;;;46.25;27.75;;;;;;;2.38;100.00;92308.81;5071246;28;20047;-74
2022/11/29 01:31:19;;;;;;;49.65;26.98;;;;;;;2.39;100.00;92310.38;5052434;28;20078;-74
2022/11/29 01:33:45;;;;;;;52.13;27.55;;;;;;;2.39;100.00;92302.63;5069100;28;20036;-74
2022/11/29 01:36:12;;;;;;;47.70;26.42;;;;;;;2.41;100.00;92303.19;5103146;28;20714;-74
2022/11/29 01:38:37;;;;;;;50.60;27.10;;;;;;;2.39;100.00;92299.28;5068834;28;20028;-74
2022/11/29 01:41:06;;;;;;;50.85;27.45;;;;;;;2.40;100.00;92300.81;5084595;28;20393;-74
2022/11/29 01:43:33;;;;;;;54.53;28.80;;;;;;;2.40;100.00;92295.66;5106245;28;20408;-75
2022/11/29 01:45:59;;;;;;;51.00;27.92;;;;;;;2.43;100.00;92295.16;5090857;28;20031;-74
2022/11/29 01:48:31;;;;;;;52.65;29.05;;;;;;;2.43;100.00;92295.16;5089010;28;20036;-74
2022/11/29 01:51:00;;;;;;;54.40;28.20;;;;;;;2.40;100.00;92293.06;5082744;28;20036;-74
2022/11/29 01:53:26;;;;;;;53.38;29.38;;;;;;;2.37;100.00;92288.41;5085574;28;20402;-74
2022/11/29 01:55:57;;;;;;;53.15;28.55;;;;;;;2.26;100.00;92293.44;5070120;28;20483;-74
2022/11/29 01:58:22;;;;;;;46.10;25.60;;;;;;;2.22;100.00;92294.94;5070057;28;20024;-74
2022/11/29 02:00:48;;;;;;;48.20;25.27;;;;;;;2.21;100.00;92290.78;5072370;28;20403;-74
2022/11/29 02:03:16;;;;;;;50.70;28.02;;;;;;;2.25;100.00;92288.50;5074822;28;20032;-74
2022/11/29 02:05:46;;;;;;;50.95;28.08;;;;;;;2.18;100.00;92287.91;5078407;28;20405;-74
2022/11/29 02:08:14;;;;;;;51.67;28.48;;;;;;;2.14;100.00;92281.63;5094089;28;20032;-75
2022/11/29 02:10:58;;;;;;;50.90;29.63;;;;;;;2.13;100.00;92286.03;5089048;28;20124;-74
2022/11/29 02:13:38;;;;;;;51.58;29.23;;;;;;;2.11;100.00;92287.28;5090842;28;20059;-75
2022/11/29 02:16:09;;;;;;;52.47;30.17;;;;;;;2.07;100.00;92281.81;5109350;28;20058;-74
2022/11/29 02:18:38;;;;;;;49.30;26.58;;;;;;;2.10;100.00;92276.19;5093786;28;20059;-74
2022/11/29 02:21:09;;;;;;;57.45;29.00;;;;;;;2.04;100.00;92275.31;5091781;28;20545;-74
2022/11/29 02:24:18;;;;;;;58.53;28.50;;;;;;;2.07;100.00;92261.97;5074521;28;20036;-74
2022/11/29 02:27:16;;;;;;;46.88;26.35;;;;;;;2.11;100.00;92262.25;5073742;28;20347;-74
2022/11/29 02:29:57;;;;;;;53.97;29.65;;;;;;;2.06;100.00;92267.34;5072046;28;20155;-74
2022/11/29 02:32:22;;;;;;;51.15;28.45;;;;;;;2.00;100.00;92266.50;5073693;28;20036;-74
2022/11/29 02:34:51;;;;;;;49.08;28.58;;;;;;;2.06;100.00;92257.03;5073288;28;20034;-74
2022/11/29 02:37:48;;;;;;;54.35;30.23;;;;;;;2.04;100.00;92266.81;5073118;28;20028;-74
2022/11/29 02:40:49;;;;;;;56.50;29.38;;;;;;;2.02;100.00;92263.69;5072048;28;20044;-75
2022/11/29 02:43:35;;;;;;;58.75;30.30;;;;;;;2.00;100.00;92251.00;5073670;28;20036;-74
2022/11/29 02:46:23;;;;;;;58.25;29.75;;;;;;;2.02;100.00;92266.25;5078494;28;20044;-74
2022/11/29 02:49:01;;;;;;;50.47;27.50;;;;;;;2.07;100.00;92251.63;5091795;28;20055;-74
2022/11/29 02:51:36;;;;;;;54.03;28.95;;;;;;;2.05;100.00;92250.31;5093161;28;20039;-74
2022/11/29 02:54:15;;;;;;;60.42;30.92;;;;;;;2.03;100.00;92244.59;5078663;28;20060;-74
2022/11/29 02:56:52;;;;;;;55.92;29.85;;;;;;;2.02;100.00;92243.03;5072839;28;20498;-74
2022/11/29 02:59:39;;;;;;;52.65;29.13;;;;;;;2.03;100.00;92244.59;5071189;28;20405;-74
2022/11/29 03:02:22;;;;;;;54.85;29.45;;;;;;;2.03;100.00;92244.59;5072658;28;20032;-74
2022/11/29 03:05:15;;;;;;;52.28;29.17;;;;;;;2.04;100.00;92246.16;5090193;28;20065;-74
2022/11/29 03:08:07;;;;;;;60.72;28.25;;;;;;;2.04;100.00;92243.56;5091475;28;20577;-75
2022/11/29 03:10:54;;;;;;;58.65;30.38;;;;;;;2.08;100.00;92242.06;5092845;28;20032;-74
2022/11/29 03:13:41;;;;;;;55.47;28.38;;;;;;;2.08;100.00;92237.69;5084233;28;20040;-74
2022/11/29 03:16:20;;;;;;;50.78;27.52;;;;;;;2.09;100.00;92235.88;5090085;28;20042;-74
2022/11/29 03:19:16;;;;;;;58.13;29.75;;;;;;;2.09;100.00;92238.47;5091156;28;20055;-74
2022/11/29 03:22:00;;;;;;;51.25;28.80;;;;;;;2.12;100.00;92239.78;5108245;28;20035;-75
2022/11/29 03:24:53;;;;;;;50.17;27.55;;;;;;;2.14;100.00;92238.53;5090057;28;20088;-74
2022/11/29 03:27:31;;;;;;;52.92;26.23;;;;;;;2.14;100.00;92238.53;5070837;28;20063;-74
2022/11/29 03:30:00;;;;;;;52.22;27.33;;;;;;;2.16;100.00;92238.28;5054076;28;20040;-74
2022/11/29 03:32:33;;;;;;;52.58;27.52;;;;;;;2.18;100.00;92242.19;5070630;28;20044;-74
2022/11/29 03:35:20;;;;;;;55.70;28.60;;;;;;;2.19;100.00;92238.59;5074347;28;21755;-74
2022/11/29 03:38:15;;;;;;;51.58;26.58;;;;;;;2.21;100.00;92246.13;5071765;28;20067;-75
2022/11/29 03:40:48;;;;;;;55.45;28.20;;;;;;;2.22;100.00;92245.06;5071605;28;20091;-74
2022/11/29 03:43:26;;;;;;;;;;;;;;;2.23;100.00;92239.69;5071107;28;20561;-74
2022/11/29 03:46:08;;;;;;;40.45;21.40;;;;;;;2.29;100.00;92237.94;5082076;28;19916;-74
2022/11/29 03:48:38;;;;;;;45.85;23.33;;;;;;;2.27;100.00;92240.75;5071662;28;20028;-74
2022/11/29 03:51:46;;;;;;;46.63;22.63;;;;;;;2.27;100.00;92237.38;5070387;28;20032;-74
2022/11/29 03:54:18;;;;;;;44.60;22.90;;;;;;;2.24;100.00;92236.06;5057403;28;20040;-75
2022/11/29 03:56:44;;;;;;;40.03;21.63;;;;;;;2.28;100.00;92231.97;5076376;28;20089;-75
2022/11/29 03:59:16;;;;;;;45.13;23.58;;;;;;;2.38;100.00;92235.69;5070057;28;20034;-75
2022/11/29 04:02:00;;;;;;;44.50;26.67;;;;;;;2.32;100.00;92236.66;5070323;28;20079;-74
2022/11/29 04:04:41;;;;;;;48.58;25.35;;;;;;;2.33;100.00;92244.16;5071659;28;20043;-74
2022/11/29 04:07:21;;;;;;;50.28;26.33;;;;;;;2.28;100.00;92244.91;5074005;28;20028;-74
2022/11/29 04:10:05;;;;;;;55.80;25.98;;;;;;;2.25;100.00;92247.97;5071355;28;20032;-74
2022/11/29 04:12:49;;;;;;;48.28;24.90;;;;;;;2.24;100.00;92241.22;5090153;28;20036;-74
2022/11/29 04:15:30;;;;;;;47.05;24.83;;;;;;;2.18;100.00;92241.41;5091376;28;20040;-74
2022/11/29 04:18:33;;;;;;;49.22;25.13;;;;;;;2.17;100.00;92239.84;5085120;28;20051;-74
2022/11/29 04:21:05;;;;;;;;;;;;;;;2.21;100.00;92240.94;5085915;28;20039;-74
2022/11/29 04:23:49;;;;;;;43.45;22.75;;;;;;;2.23;100.00;92238.88;5091258;28;20006;-74
2022/11/29 04:26:20;;;;;;;45.33;24.48;;;;;;;2.20;100.00;92245.31;5089639;28;20071;-74
2022/11/29 04:29:10;;;;;;;55.60;25.93;;;;;;;2.19;100.00;92248.16;5084723;28;20034;-74
2022/11/29 04:31:45;;;;;;;45.20;24.88;;;;;;;2.18;100.00;92237.00;5066209;28;20229;-75
2022/11/29 04:34:19;;;;;;;49.05;24.13;;;;;;;2.18;100.00;92242.19;5069883;28;20471;-75
2022/11/29 04:37:26;;;;;;;46.85;24.50;;;;;;;2.17;100.00;92240.63;5088254;28;20032;-75
2022/11/29 04:40:16;;;;;;;47.65;23.50;;;;;;;2.18;100.00;92234.44;5078825;28;20528;-75
2022/11/29 04:42:59;;;;;;;49.00;24.38;;;;;;;2.18;100.00;92237.00;5087394;28;20410;-75
2022/11/29 04:45:46;;;;;;;48.45;25.23;;;;;;;2.22;100.00;92242.50;5071000;28;20120;-74
2022/11/29 04:48:24;;;;;;;54.85;27.63;;;;;;;2.18;100.00;92237.00;5072119;28;20064;-75
2022/11/29 04:51:17;;;;;;;51.72;25.83;;;;;;;2.15;100.00;92247.06;5072345;28;20116;-75
2022/11/29 04:53:52;;;;;;;56.03;26.75;;;;;;;2.06;100.00;92242.31;5069448;28;20051;-75
2022/11/29 04:56:39;;;;;;;54.45;27.88;;;;;;;2.01;100.00;92238.91;5089768;28;20567;-75
2022/11/29 04:59:17;;;;;;;55.28;28.13;;;;;;;1.96;100.00;92244.78;5073712;28;20040;-75
2022/11/29 05:02:00;;;;;;;54.92;29.25;;;;;;;1.97;100.00;92248.13;5073390;28;20493;-75
2022/11/29 05:04:43;;;;;;;63.58;30.83;;;;;;;1.98;100.00;92247.09;5070840;28;20498;-75
2022/11/29 05:07:16;;;;;;;59.22;30.00;;;;;;;1.97;100.00;92240.38;5086084;28;20041;-75
2022/11/29 05:10:05;;;;;;;58.42;29.13;;;;;;;1.95;100.00;92237.25;5100295;28;20028;-75
2022/11/29 05:13:00;;;;;;;64.00;30.15;;;;;;;1.88;100.00;92248.53;5075256;28;20039;-75
2022/11/29 05:15:29;;;;;;;62.80;30.65;;;;;;;1.88;100.00;92252.91;5090891;28;20119;-75
2022/11/29 05:18:05;;;;;;;61.58;32.25;;;;;;;1.87;100.00;92246.97;5090716;28;20032;-75
2022/11/29 05:20:46;;;;;;;60.47;30.05;;;;;;;1.83;100.00;92227.81;5073394;28;20123;-74
2022/11/29 05:23:33;;;;;;;57.30;30.05;;;;;;;1.88;100.00;92242.59;5072450;28;20037;-75
2022/11/29 05:26:16;;;;;;;59.67;30.98;;;;;;;1.90;100.00;92245.72;5052318;28;20089;-75
2022/11/29 05:29:01;;;;;;;58.45;30.50;;;;;;;1.88;100.00;92248.53;5086048;28;20048;-75
2022/11/29 05:31:58;;;;;;;64.15;30.00;;;;;;;1.88;100.00;92251.13;5088950;28;20036;-74
2022/11/29 05:34:49;;;;;;;64.22;30.83;;;;;;;1.90;100.00;92250.13;5069092;28;20036;-75
2022/11/29 05:37:35;;;;;;;61.63;29.25;;;;;;;1.91;100.00;92249.84;5052615;28;20036;-75
2022/11/29 05:40:29;;;;;;;58.67;30.05;;;;;;;1.91;100.00;92246.50;5072453;28;20032;-75
2022/11/29 05:43:04;;;;;;;57.05;30.25;;;;;;;1.94;100.00;92251.97;5082237;28;20032;-75
2022/11/29 05:45:52;;;;;;;61.35;29.63;;;;;;;1.95;100.00;92256.09;5074240;28;20460;-74
2022/11/29 05:48:48;;;;;;;57.25;29.33;;;;;;;1.96;100.00;92254.28;5089753;28;20028;-76
2022/11/29 05:51:30;;;;;;;57.47;29.95;;;;;;;1.95;100.00;92258.69;5100429;28;20035;-76
2022/11/29 05:54:02;;;;;;;56.22;28.95;;;;;;;1.98;100.00;92260.00;5078477;28;20402;-76
2022/11/29 05:57:06;;;;;;;60.33;29.23;;;;;;;1.99;100.00;92254.63;5085489;28;20077;-75
2022/11/29 05:59:35;;;;;;;50.85;24.92;;;;;;;1.99;100.00;92259.00;5051722;28;20058;-76
2022/11/29 06:02:21;;;;;;;51.40;26.00;;;;;;;2.00;100.00;92261.31;5083124;28;20085;-76
2022/11/29 06:04:56;;;;;;;51.72;25.95;;;;;;;2.03;100.00;92257.50;5086876;28;20043;-76
2022/11/29 06:07:31;;;;;;;50.20;25.38;;;;;;;2.07;100.00;92261.97;5087628;28;20040;-75
2022/11/29 06:10:05;;;;;;;50.80;26.00;;;;;;;2.08;100.00;92257.56;5091241;28;20039;-76
2022/11/29 06:12:34;;;;;;;51.05;26.10;;;;;;;2.11;100.00;92264.81;5072889;28;20094;-76
2022/11/29 06:15:22;;;;;;;50.50;24.77;;;;;;;2.12;100.00;92261.25;5077028;28;20102;-76
2022/11/29 06:18:30;;;;;;;46.03;24.15;;;;;;;2.14;100.00;92271.31;5070545;28;20116;-75
2022/11/29 06:21:15;;;;;;;48.70;23.05;;;;;;;2.13;100.00;92267.19;5082101;28;20048;-77
2022/11/29 06:23:57;;;;;;;46.67;22.90;;;;;;;2.12;100.00;92268.19;5072375;28;20037;-76
2022/11/29 06:26:29;;;;;;;47.60;23.37;;;;;;;2.11;100.00;92276.97;5074752;28;20036;-76
2022/11/29 06:29:17;;;;;;;45.58;21.77;;;;;;;2.12;100.00;92270.75;5071502;28;20082;-77
2022/11/29 06:31:48;;;;;;;43.20;21.17;;;;;;;2.12;100.00;92276.72;5074257;28;20067;-76
2022/11/29 06:34:14;;;;;;;48.35;23.05;;;;;;;2.15;100.00;92273.66;5090299;28;20432;-77
2022/11/29 06:36:46;;;;;;;45.30;21.63;;;;;;;2.15;100.00;92278.81;5091422;28;20021;-77
2022/11/29 06:39:11;;;;;;;40.75;20.67;;;;;;;2.15;100.00;92281.41;5072338;28;20037;-77
2022/11/29 06:41:37;;;;;;;42.40;20.98;;;;;;;2.13;100.00;92280.88;5091252;28;20124;-77
2022/11/29 06:44:04;;;;;;;44.83;20.85;;;;;;;2.16;100.00;92275.25;5072212;28;20044;-77
2022/11/29 06:46:57;;;;;;;51.15;21.15;;;;;;;2.16;100.00;92288.16;5075850;28;20078;-77
2022/11/29 06:49:29;;;;;;;45.08;21.02;;;;;;;2.15;100.00;92291.75;5093429;28;20059;-77
2022/11/29 06:52:19;;;;;;;47.97;21.52;;;;;;;2.14;100.00;92285.03;5091658;28;20494;-77
2022/11/29 06:54:54;;;;;;;42.88;20.60;;;;;;;2.16;100.00;92290.75;5086972;28;20032;-79
2022/11/29 06:57:36;;;;;;;43.33;21.70;;;;;;;2.16;100.00;92290.75;5079985;28;20028;-81
2022/11/29 07:00:16;;;;;;;48.05;20.45;;;;;;;2.18;100.00;92291.25;5089821;28;20453;-80
2022/11/29 07:03:22;;;;;;;43.80;22.02;;;;;;;2.24;100.00;92290.31;5057677;28;20032;-80
2022/11/29 07:05:48;;;;;;;43.83;20.88;;;;;;;2.24;100.00;92295.47;5076851;28;20044;-80
2022/11/29 07:08:20;;;;;;;45.90;20.80;;;;;;;2.24;100.00;92297.28;5095877;28;20052;-79
2022/11/29 07:10:48;;;;;;;46.22;22.63;;;;;;;2.27;100.00;92294.19;5084046;28;20071;-80
2022/11/29 07:13:16;;;;;;;41.28;20.70;;;;;;;2.29;100.00;92298.09;5091343;28;20020;-79
2022/11/29 07:16:04;;;;;;;44.03;21.63;;;;;;;2.28;100.00;92306.13;5082385;28;20537;-80
2022/11/29 07:18:46;;;;;;;37.50;18.60;;;;;;;2.33;100.00;92300.22;5075643;28;20107;-78
2022/11/29 07:21:24;;;;;;;36.42;18.20;;;;;;;2.33;100.00;92303.59;5109013;28;20546;-81
2022/11/29 07:24:01;;;;;;;38.42;18.88;;;;;;;2.31;100.00;92304.84;5079755;28;20367;-80
2022/11/29 07:26:36;;;;;;;36.95;18.33;;;;;;;2.34;100.00;92312.13;5084767;28;20043;-81
2022/11/29 07:29:27;;;;;;;41.08;18.80;;;;;;;2.33;100.00;92308.75;5094314;28;20052;-80
2022/11/29 07:32:00;;;;;;;33.65;16.60;;;;;;;2.33;100.00;92307.97;5074201;28;20055;-80
2022/11/29 07:34:44;;;;;;;;;;;;;;;2.33;100.00;92313.16;5076012;28;20032;-79
2022/11/29 07:37:32;;;;;;;38.15;16.33;;;;;;;2.34;100.00;92309.53;5082106;28;20390;-80
2022/11/29 07:40:01;;;;;;;32.40;16.58;;;;;;;2.35;100.00;92304.13;5086949;28;20158;-79
2022/11/29 07:42:51;;;;;;;31.75;16.42;;;;;;;2.36;100.00;92305.69;5088936;28;20013;-81
2022/11/29 07:45:28;;;;;;;34.10;16.83;;;;;;;2.37;100.00;92306.47;5078491;28;20039;-79
2022/11/29 07:47:54;;;;;;;41.50;19.00;;;;;;;2.40;100.00;92309.34;5109764;28;20051;-80
2022/11/29 07:50:20;;;;;;;37.95;19.35;;;;;;;2.35;100.00;92311.09;5076124;28;20016;-80
2022/11/29 07:52:47;;;;;;;37.70;18.70;;;;;;;2.39;100.00;92312.19;5083311;28;20052;-80
2022/11/29 07:55:18;;;;;;;40.28;20.17;;;;;;;2.43;100.00;92310.66;5108917;28;20077;-79
2022/11/29 07:57:43;;;;;;;33.35;16.88;;;;;;;2.45;100.00;92314.56;5088908;28;20036;-79
2022/11/29 08:00:10;;;;;;;37.78;17.63;;;;;;;2.45;100.00;92311.22;5092445;28;20055;-79
2022/11/29 08:02:40;;;;;;;35.90;17.95;;;;;;;2.48;100.00;92310.75;5090950;28;20037;-80
2022/11/29 08:05:06;;;;;;;53.15;28.77;;;;;;;2.48;100.00;92311.53;5094957;28;20063;-80
2022/11/29 08:07:39;;;;;;;56.25;26.17;;;;;;;2.40;100.00;92311.16;5098676;28;20555;-80
2022/11/29 08:10:09;;;;;;;43.70;23.33;;;;;;;2.36;100.00;92321.19;5081315;28;20043;-78
2022/11/29 08:12:34;;;;;;;47.78;23.05;;;;;;;2.40;100.00;92321.50;5104301;28;20030;-79
2022/11/29 08:15:00;;;;;;;49.33;22.85;;;;;;;2.46;100.00;92320.53;5091955;28;20028;-80
2022/11/29 08:17:26;;;;;;;49.72;20.55;;;;;;;2.53;100.00;92315.97;5063280;28;20052;-80
2022/11/29 08:19:51;;;;;;;32.90;17.38;;;;;;;2.57;100.00;92319.66;5088169;28;20107;-80
2022/11/29 08:22:17;;;;;;;151.68;26.15;;;;;;;2.68;100.00;92323.91;5080692;28;20110;-80
2022/11/29 08:24:43;;;;;;;141.27;28.15;;;;;;;2.73;100.00;92325.00;5080001;28;20088;-80
2022/11/29 08:27:09;;;;;;;223.30;33.83;;;;;;;2.50;100.00;92319.06;5092884;28;20509;-80
2022/11/29 08:29:34;;;;;;;428.92;30.80;;;;;;;2.48;100.00;92318.50;5082497;28;20024;-81
2022/11/29 08:32:00;;;;;;;621.53;41.67;;;;;;;2.50;100.00;92326.81;5095879;28;20105;-82
2022/11/29 08:34:26;;;;;;;339.60;38.05;;;;;;;2.29;100.00;92330.91;5083082;28;20051;-81
2022/11/29 08:36:55;;;;;;;298.55;35.40;;;;;;;2.32;100.00;92320.13;5085984;28;20024;-80
2022/11/29 08:39:21;;;;;;;140.27;34.90;;;;;;;2.43;100.00;92326.97;5092380;28;20043;-80
2022/11/29 08:41:48;;;;;;;104.28;33.15;;;;;;;2.40;100.00;92326.66;5092166;28;20032;-81
2022/11/29 08:44:14;;;;;;;70.28;33.40;;;;;;;2.42;100.00;92329.78;5076291;28;20062;-81
2022/11/29 08:49:24;;;;;;;115.10;34.25;;;;;;;2.58;100.00;92328.94;5092673;28;20035;-81
2022/11/29 08:53:40;;;;;;;168.25;31.95;;;;;;;2.51;100.00;92328.34;5110044;28;20052;-81
2022/11/29 08:54:41;;;;;;;67.55;31.73;;;;;;;2.58;100.00;92326.38;5092773;28;20040;-80
2022/11/29 08:57:06;;;;;;;57.88;28.42;;;;;;;2.53;100.00;92331.47;5094930;28;20032;-80
2022/11/29 08:59:32;;;;;;;64.05;30.60;;;;;;;2.51;100.00;92343.84;5095082;28;20032;-81
2022/11/29 09:01:58;;;;;;;58.88;30.17;;;;;;;2.47;100.00;92337.59;5095563;28;20040;-79
2022/11/29 09:04:23;;;;;;;64.82;27.92;;;;;;;2.43;100.00;92344.25;5099041;28;20044;-80
2022/11/29 09:06:49;;;;;;;56.92;26.42;;;;;;;2.35;100.00;92342.88;5082841;28;20042;-80
2022/11/29 09:09:15;;;;;;;60.72;29.33;;;;;;;2.27;100.00;92338.91;5095189;28;20040;-81
2022/11/29 09:11:42;;;;;;;63.30;31.15;;;;;;;2.45;100.00;92347.38;5095356;28;20489;-81
2022/11/29 09:14:10;;;;;;;72.20;33.08;;;;;;;2.37;100.00;92346.00;5074694;28;21104;-81
2022/11/29 09:16:37;;;;;;;67.65;33.00;;;;;;;2.49;100.00;92346.66;5079817;28;20128;-81
2022/11/29 09:19:04;;;;;;;319.95;32.00;;;;;;;2.49;100.00;92356.22;5097556;28;20067;-80
2022/11/29 09:21:31;;;;;;;151.88;19.00;;;;;;;2.47;100.00;92353.09;5099640;28;20039;-80
2022/11/29 09:24:00;;;;;;;466.98;38.97;;;;;;;2.42;100.00;92353.81;5097980;28;20410;-81
2022/11/29 09:26:28;;;;;;;62.90;28.75;;;;;;;2.52;100.00;92360.91;5097240;28;20324;-80
2022/11/29 09:28:54;;;;;;;648.25;41.08;;;;;;;2.46;100.00;92354.13;5113501;28;20024;-80
2022/11/29 09:31:20;;;;;;;146.10;37.45;;;;;;;2.37;100.00;92363.31;5098888;28;20400;-80
2022/11/29 09:33:46;;;;;;;79.32;37.70;;;;;;;2.38;100.00;92364.88;5097876;28;20119;-80
2022/11/29 09:36:13;;;;;;;118.85;36.08;;;;;;;2.40;100.00;92357.66;5114427;28;20040;-81
2022/11/29 09:38:38;;;;;;;93.18;33.38;;;;;;;2.55;100.00;92359.66;5084617;28;20090;-81
2022/11/29 09:41:27;;;;;;;260.30;32.90;;;;;;;2.70;100.00;92360.63;5078295;28;20032;-80
2022/11/29 09:44:43;;;;;;;137.25;33.38;;;;;;;2.43;100.00;92357.19;5076951;28;20123;-81
2022/11/29 09:47:37;;;;;;;104.05;37.67;;;;;;;2.40;100.00;92363.59;5055373;28;20045;-81
2022/11/29 09:50:13;;;;;;;59.80;30.75;;;;;;;2.38;100.00;92360.47;5076089;28;20048;-81
2022/11/29 09:53:00;;;;;;;51.28;23.77;;;;;;;2.62;100.00;92361.03;5076800;28;20124;-81
2022/11/29 09:55:32;;;;;;;61.22;27.10;;;;;;;2.57;100.00;92361.00;5077785;28;20036;-80
2022/11/29 09:57:59;;;;;;;70.83;33.67;;;;;;;2.59;100.00;92358.94;5076768;28;20039;-81
2022/11/29 10:00:27;;;;;;;61.30;30.15;;;;;;;2.58;100.00;92359.97;5096933;28;20073;-80
2022/11/29 10:02:59;;;;;;;62.42;31.50;;;;;;;2.59;100.00;92361.53;5097878;28;20131;-81
2022/11/29 10:05:43;;;;;;;70.80;31.67;;;;;;;2.73;100.00;92350.84;5094541;28;20034;-81
2022/11/29 10:08:18;;;;;;;60.20;29.83;;;;;;;2.81;100.00;92356.34;5077380;28;20024;-80
2022/11/29 10:10:49;;;;;;;50.92;25.55;;;;;;;2.85;100.00;92361.81;5077355;28;20047;-80
2022/11/29 10:13:17;;;;;;;54.92;28.05;;;;;;;2.73;100.00;92350.84;5078235;28;20459;-81
2022/11/29 10:15:47;;;;;;;271.42;35.80;;;;;;;2.79;100.00;92361.00;5075437;28;20028;-81
2022/11/29 10:18:21;;;;;;;229.82;35.78;;;;;;;2.69;100.00;92351.31;5081537;28;20024;-81
2022/11/29 10:20:49;;;;;;;104.30;33.47;;;;;;;2.63;100.00;92349.69;5109220;28;20024;-81
2022/11/29 10:23:36;;;;;;;62.42;31.02;;;;;;;2.59;100.00;92350.41;5077230;28;20037;-81
2022/11/29 10:26:06;;;;;;;106.68;30.02;;;;;;;2.78;100.00;92343.91;5095236;28;20032;-81
2022/11/29 10:28:35;;;;;;;67.97;32.40;;;;;;;2.70;100.00;92342.53;5082145;28;20104;-81
2022/11/29 10:31:21;;;;;;;59.42;29.65;;;;;;;2.85;100.00;92339.34;5091985;28;20513;-78
2022/11/29 10:33:48;;;;;;;66.60;31.20;;;;;;;2.87;100.00;92341.69;5090694;28;20032;-80
2022/11/29 10:36:39;;;;;;;61.38;29.85;;;;;;;2.79;100.00;92339.53;5089666;28;20071;-80
2022/11/29 10:39:19;;;;;;;54.92;26.75;;;;;;;2.86;100.00;92345.28;5095386;28;20036;-81
2022/11/29 10:41:50;;;;;;;62.58;27.42;;;;;;;2.94;100.00;92338.91;5092120;28;20055;-79
2022/11/29 10:44:16;;;;;;;51.40;26.35;;;;;;;3.00;100.00;92333.56;5083431;28;20449;-79
2022/11/29 10:46:41;;;;;;;58.00;27.88;;;;;;;2.89;100.00;92331.88;5083410;28;20032;-78
2022/11/29 10:49:16;;;;;;;60.22;27.33;;;;;;;2.81;100.00;92329.72;5084331;28;20032;-81
2022/11/29 10:51:44;;;;;;;81.88;36.38;;;;;;;2.71;100.00;92328.59;5089098;28;20197;-82
2022/11/29 10:54:38;;;;;;;65.88;32.50;;;;;;;2.87;100.00;92331.34;5087859;28;20446;-81
2022/11/29 10:57:13;;;;;;;64.70;30.83;;;;;;;2.86;100.00;92329.78;5087645;28;20237;-79
2022/11/29 10:59:39;;;;;;;68.05;31.48;;;;;;;2.81;100.00;92327.13;5083617;28;20024;-81
2022/11/29 11:02:17;;;;;;;64.57;31.65;;;;;;;2.89;100.00;92326.72;5085359;28;20101;-80
2022/11/29 11:04:45;;;;;;;63.88;29.92;;;;;;;2.81;100.00;92324.56;5087324;28;20493;-80
2022/11/29 11:07:24;;;;;;;60.00;23.48;;;;;;;2.90;100.00;92330.84;5094678;28;20043;-81
2022/11/29 11:09:54;;;;;;;106.53;34.00;;;;;;;2.82;100.00;92323.53;5092996;28;20114;-81
2022/11/29 11:12:25;;;;;;;155.70;23.83;;;;;;;2.79;100.00;92324.00;5090262;28;20024;-81
2022/11/29 11:14:50;;;;;;;322.85;38.65;;;;;;;2.78;100.00;92319.88;5076299;28;20037;-78
2022/11/29 11:17:31;;;;;;;681.45;42.67;;;;;;;2.79;100.00;92319.63;5086952;28;20070;-81
2022/11/29 11:20:28;;;;;;;700.13;44.60;;;;;;;2.75;100.00;92325.50;5075874;28;20032;-81
2022/11/29 11:23:04;;;;;;;146.00;35.80;;;;;;;2.97;100.00;92318.50;5085677;28;20513;-80
2022/11/29 11:25:34;;;;;;;116.95;39.28;;;;;;;2.85;100.00;92321.25;5093521;28;20456;-80
2022/11/29 11:28:20;;;;;;;59.10;28.65;;;;;;;2.96;100.00;92321.34;5064577;28;20059;-80
2022/11/29 11:30:56;;;;;;;150.35;29.02;;;;;;;2.93;100.00;92317.47;5078040;28;20029;-76
2022/11/29 11:33:32;;;;;;;245.85;37.40;;;;;;;2.89;100.00;92321.53;5072734;28;20077;-77
2022/11/29 11:36:12;;;;;;;577.53;45.42;;;;;;;2.84;100.00;92316.31;5084738;28;20059;-77
2022/11/29 11:38:41;;;;;;;63.00;31.98;;;;;;;2.91;100.00;92324.66;5090941;28;20063;-77
2022/11/29 11:41:06;;;;;;;69.63;33.83;;;;;;;2.94;100.00;92315.66;5079485;28;20456;-76
2022/11/29 11:43:33;;;;;;;72.15;32.95;;;;;;;3.27;100.00;92317.25;5083354;28;20034;-77
2022/11/29 11:45:58;;;;;;;45.17;23.25;;;;;;;3.23;100.00;92314.38;5090962;28;20037;-77
2022/11/29 11:48:24;;;;;;;88.35;34.50;;;;;;;3.10;100.00;92318.13;5084899;28;20034;-76
2022/11/29 11:50:57;;;;;;;68.05;33.63;;;;;;;3.05;100.00;92318.09;5084174;28;20033;-75
2022/11/29 11:53:35;;;;;;;60.88;30.60;;;;;;;3.11;100.00;92311.94;5070676;28;20048;-76
2022/11/29 11:56:08;;;;;;;62.88;30.70;;;;;;;3.02;100.00;92318.59;5076777;28;20048;-76